createdAt,value
2019-02-06T00:00:45.678Z,27.33
2019-02-06T00:03:19.882Z,27.00
2019-02-06T00:05:49.647Z,26.60
2019-02-06T00:08:19.299Z,25.57
2019-02-06T00:10:48.913Z,26.60
2019-02-06T00:13:18.423Z,25.57
2019-02-06T00:15:48.515Z,27.83
2019-02-06T00:18:18.041Z,25.80
2019-02-06T00:20:47.598Z,26.50
2019-02-06T00:23:17.114Z,27.20
2019-02-06T00:25:46.607Z,27.47
2019-02-06T00:28:16.117Z,25.07
2019-02-06T00:30:45.791Z,25.00
2019-02-06T00:33:15.288Z,25.40
2019-02-06T00:35:44.792Z,25.67
2019-02-06T00:38:14.328Z,24.23
2019-02-06T00:40:43.829Z,23.80
2019-02-06T00:43:13.337Z,26.17
2019-02-06T00:45:43.196Z,25.50
2019-02-06T00:48:12.710Z,26.10
2019-02-06T00:50:42.221Z,25.73
2019-02-06T00:53:11.745Z,25.43
2019-02-06T00:55:41.257Z,24.17
2019-02-06T00:58:10.740Z,24.50
2019-02-06T01:00:40.702Z,23.70
2019-02-06T01:03:10.241Z,24.37
2019-02-06T01:05:39.738Z,23.37
2019-02-06T01:08:09.223Z,24.47
2019-02-06T01:10:38.794Z,24.83
2019-02-06T01:13:08.379Z,23.77
2019-02-06T01:15:38.599Z,24.73
2019-02-06T01:18:08.202Z,26.03
2019-02-06T01:20:37.688Z,25.40
2019-02-06T01:23:07.190Z,25.93
2019-02-06T01:25:36.723Z,26.13
2019-02-06T01:28:06.226Z,25.17
2019-02-06T01:30:43.331Z,25.60
2019-02-06T01:33:12.803Z,24.00
2019-02-06T01:35:49.418Z,25.07
2019-02-06T01:38:13.514Z,25.03
2019-02-06T01:40:42.986Z,26.77
2019-02-06T01:43:12.523Z,27.57
2019-02-06T01:45:42.414Z,25.20
2019-02-06T01:48:11.955Z,23.93
2019-02-06T01:50:41.461Z,24.47
2019-02-06T01:53:10.957Z,23.33
2019-02-06T01:55:39.802Z,24.20
2019-02-06T01:58:09.367Z,25.23
2019-02-06T02:00:39.926Z,24.50
2019-02-06T02:03:09.380Z,22.60
2019-02-06T02:05:38.900Z,23.07
2019-02-06T02:08:08.382Z,23.03
2019-02-06T02:10:37.943Z,23.27
2019-02-06T02:13:07.667Z,24.07
2019-02-06T02:15:37.641Z,24.60
2019-02-06T02:18:07.482Z,24.03
2019-02-06T02:20:36.980Z,24.40
2019-02-06T02:23:06.480Z,24.03
2019-02-06T02:25:35.966Z,24.17
2019-02-06T02:28:05.604Z,23.83
2019-02-06T02:30:45.254Z,23.80
2019-02-06T02:33:14.717Z,25.00
2019-02-06T02:35:44.223Z,26.67
2019-02-06T02:38:13.758Z,24.97
2019-02-06T02:40:43.314Z,24.57
2019-02-06T02:43:12.995Z,24.83
2019-02-06T02:45:42.498Z,24.87
2019-02-06T02:48:11.994Z,23.50
2019-02-06T02:50:41.561Z,22.00
2019-02-06T02:53:11.015Z,23.23
2019-02-06T02:55:40.555Z,23.97
2019-02-06T02:58:10.732Z,23.40
2019-02-06T03:00:57.681Z,21.70
2019-02-06T03:03:37.527Z,28.00
2019-02-06T03:06:07.005Z,31.77
2019-02-06T03:08:36.497Z,29.73
2019-02-06T03:11:06.292Z,23.07
2019-02-06T03:13:35.802Z,23.97
2019-02-06T03:16:05.566Z,23.90
2019-02-06T03:18:35.054Z,23.07
2019-02-06T03:21:04.514Z,21.33
2019-02-06T03:23:34.015Z,21.10
2019-02-06T03:26:03.494Z,20.27
2019-02-06T03:28:32.976Z,19.27
2019-02-06T03:31:02.513Z,19.63
2019-02-06T03:33:32.007Z,21.53
2019-02-06T03:36:02.066Z,23.50
2019-02-06T03:38:31.747Z,22.30
2019-02-06T03:41:01.382Z,19.73
2019-02-06T03:43:30.846Z,20.60
2019-02-06T03:46:00.310Z,21.23
2019-02-06T03:48:29.800Z,20.00
2019-02-06T03:50:59.285Z,19.93
2019-02-06T03:53:28.798Z,19.53
2019-02-06T03:55:58.298Z,20.23
2019-02-06T03:58:27.863Z,20.30
2019-02-06T04:00:57.387Z,19.83
2019-02-06T04:03:26.857Z,17.90
2019-02-06T04:05:56.379Z,19.30
2019-02-06T04:08:25.867Z,18.97
2019-02-06T04:10:55.366Z,18.40
2019-02-06T04:13:24.829Z,18.97
2019-02-06T04:15:54.307Z,18.97
2019-02-06T04:18:23.821Z,18.00
2019-02-06T04:20:53.342Z,18.97
2019-02-06T04:23:22.846Z,18.23
2019-02-06T04:25:52.303Z,18.70
2019-02-06T04:28:21.166Z,17.90
2019-02-06T04:30:50.717Z,17.23
2019-02-06T04:33:20.216Z,17.00
2019-02-06T04:35:49.699Z,15.67
2019-02-06T04:38:19.263Z,16.60
2019-02-06T04:40:48.767Z,16.40
2019-02-06T04:43:18.291Z,15.17
2019-02-06T04:45:47.826Z,15.97
2019-02-06T04:48:17.348Z,15.10
2019-02-06T04:50:46.851Z,14.87
2019-02-06T04:53:16.391Z,15.77
2019-02-06T04:55:45.194Z,15.47
2019-02-06T04:58:14.743Z,15.27
2019-02-06T05:00:44.216Z,14.90
2019-02-06T05:03:13.721Z,14.50
2019-02-06T05:05:43.222Z,14.70
2019-02-06T05:08:12.952Z,14.87
2019-02-06T05:10:42.637Z,13.70
2019-02-06T05:13:12.180Z,13.73
2019-02-06T05:15:41.672Z,13.83
2019-02-06T05:18:11.194Z,13.73
2019-02-06T05:20:41.646Z,13.00
2019-02-06T05:23:11.580Z,13.00
2019-02-06T05:25:41.055Z,13.27
2019-02-06T05:28:10.683Z,12.90
2019-02-06T05:30:40.181Z,12.23
2019-02-06T05:33:09.693Z,12.43
2019-02-06T05:35:39.213Z,12.00
2019-02-06T05:38:09.243Z,12.40
2019-02-06T05:40:38.720Z,11.67
2019-02-06T05:43:09.390Z,12.70
2019-02-06T05:45:38.944Z,13.27
2019-02-06T05:48:08.578Z,13.40
2019-02-06T05:50:38.062Z,13.13
2019-02-06T05:53:07.835Z,13.70
2019-02-06T05:55:37.336Z,13.90
2019-02-06T05:58:06.832Z,13.97
2019-02-06T06:00:43.147Z,13.90
2019-02-06T06:03:12.638Z,13.60
2019-02-06T06:05:42.139Z,13.27
2019-02-06T06:08:11.857Z,13.30
2019-02-06T06:10:41.323Z,13.07
2019-02-06T06:13:10.810Z,13.13
2019-02-06T06:15:40.304Z,13.67
2019-02-06T06:18:09.158Z,12.97
2019-02-06T06:20:38.735Z,13.20
2019-02-06T06:23:08.607Z,12.40
2019-02-06T06:25:38.132Z,11.53
2019-02-06T06:28:07.623Z,11.60
2019-02-06T06:30:37.195Z,12.33
2019-02-06T06:33:06.668Z,12.77
2019-02-06T06:35:36.175Z,12.17
2019-02-06T06:38:06.014Z,11.07
2019-02-06T06:40:35.550Z,11.60
2019-02-06T06:43:05.250Z,10.73
2019-02-06T06:45:34.745Z,10.40
2019-02-06T06:48:04.354Z,10.20
2019-02-06T06:50:33.852Z,9.43
2019-02-06T06:53:03.418Z,10.33
2019-02-06T06:55:35.119Z,9.97
2019-02-06T06:58:04.051Z,10.20
2019-02-06T07:00:34.367Z,9.43
2019-02-06T07:03:03.855Z,10.03
2019-02-06T07:05:33.366Z,10.07
2019-02-06T07:08:11.144Z,9.40
2019-02-06T07:10:34.614Z,9.83
2019-02-06T07:13:04.084Z,9.37
2019-02-06T07:15:35.049Z,9.47
2019-02-06T07:18:04.739Z,9.53
2019-02-06T07:20:34.255Z,9.47
2019-02-06T07:23:04.424Z,8.67
2019-02-06T07:25:34.004Z,9.13
2019-02-06T07:28:03.518Z,19.37
2019-02-06T07:30:34.800Z,37.27
2019-02-06T07:33:04.438Z,11.30
2019-02-06T07:35:34.023Z,9.60
2019-02-06T07:38:03.521Z,9.13
2019-02-06T07:40:33.015Z,8.47
2019-02-06T07:43:02.502Z,7.97
2019-02-06T07:45:32.014Z,7.90
2019-02-06T07:48:01.486Z,8.43
2019-02-06T07:50:32.432Z,8.40
2019-02-06T07:53:01.876Z,8.33
2019-02-06T07:55:31.377Z,8.07
2019-02-06T07:58:00.901Z,8.53
2019-02-06T08:00:30.529Z,8.27
2019-02-06T08:03:00.510Z,7.93
2019-02-06T08:05:30.084Z,7.07
2019-02-06T08:07:59.781Z,7.27
2019-02-06T08:10:34.291Z,7.13
2019-02-06T08:13:04.271Z,7.30
2019-02-06T08:15:34.161Z,6.83
2019-02-06T08:18:03.812Z,6.37
2019-02-06T08:20:33.299Z,7.40
2019-02-06T08:23:02.820Z,7.03
2019-02-06T08:25:32.284Z,6.77
2019-02-06T08:28:01.742Z,6.93
2019-02-06T08:30:36.318Z,7.00
2019-02-06T08:33:05.842Z,6.30
2019-02-06T08:35:35.645Z,6.70
2019-02-06T08:38:05.788Z,6.47
2019-02-06T08:40:35.381Z,6.97
2019-02-06T08:43:04.951Z,6.30
2019-02-06T08:45:34.472Z,6.40
2019-02-06T08:48:04.087Z,6.27
2019-02-06T08:50:33.625Z,6.40
2019-02-06T08:53:03.104Z,6.27
2019-02-06T08:55:32.827Z,6.20
2019-02-06T08:58:02.460Z,6.37
2019-02-06T09:00:34.244Z,6.67
2019-02-06T09:03:04.552Z,6.60
2019-02-06T09:05:34.532Z,6.00
2019-02-06T09:08:04.248Z,5.63
2019-02-06T09:10:34.001Z,6.07
2019-02-06T09:13:03.577Z,5.83
2019-02-06T09:15:33.060Z,5.87
2019-02-06T09:18:02.566Z,6.23
2019-02-06T09:20:52.483Z,6.03
2019-02-06T09:23:20.703Z,6.13
2019-02-06T09:25:50.195Z,6.50
2019-02-06T09:28:19.689Z,6.17
2019-02-06T09:30:51.353Z,5.90
2019-02-06T09:33:20.970Z,6.43
2019-02-06T09:35:50.482Z,6.30
2019-02-06T09:38:19.996Z,5.73
2019-02-06T09:40:49.770Z,6.03
2019-02-06T09:43:19.735Z,5.80
2019-02-06T09:45:49.614Z,5.80
2019-02-06T09:48:19.186Z,6.10
2019-02-06T09:50:48.708Z,6.30
2019-02-06T09:53:18.208Z,5.63
2019-02-06T09:55:47.732Z,5.77
2019-02-06T09:58:17.227Z,5.50
2019-02-06T10:00:47.167Z,5.47
2019-02-06T10:03:16.806Z,5.50
2019-02-06T10:05:46.290Z,4.77
2019-02-06T10:08:15.769Z,5.20
2019-02-06T10:10:45.268Z,5.00
2019-02-06T10:13:16.479Z,5.10
2019-02-06T10:15:45.283Z,4.80
2019-02-06T10:18:14.757Z,5.43
2019-02-06T10:20:49.673Z,4.83
2019-02-06T10:23:20.325Z,4.57
2019-02-06T10:25:49.815Z,4.90
2019-02-06T10:28:19.326Z,4.80
2019-02-06T10:30:50.667Z,4.97
2019-02-06T10:33:20.346Z,5.17
2019-02-06T10:35:51.963Z,5.17
2019-02-06T10:38:20.962Z,5.03
2019-02-06T10:40:50.557Z,5.07
2019-02-06T10:43:31.295Z,5.43
2019-02-06T10:45:51.584Z,5.43
2019-02-06T10:48:21.055Z,5.30
2019-02-06T10:50:54.380Z,5.20
2019-02-06T10:53:23.954Z,6.47
2019-02-06T10:55:53.468Z,5.70
2019-02-06T10:58:23.066Z,5.20
2019-02-06T11:01:00.999Z,5.40
2019-02-06T11:03:30.507Z,5.20
2019-02-06T11:06:00.030Z,5.90
2019-02-06T11:08:29.578Z,5.23
2019-02-06T11:10:59.463Z,5.80
2019-02-06T11:13:28.943Z,6.03
2019-02-06T11:15:58.527Z,5.43
2019-02-06T11:18:28.069Z,5.87
2019-02-06T11:20:57.594Z,5.10
2019-02-06T11:23:27.121Z,5.17
2019-02-06T11:25:56.963Z,5.27
2019-02-06T11:28:26.526Z,5.10
2019-02-06T11:30:57.244Z,6.20
2019-02-06T11:33:26.938Z,5.50
2019-02-06T11:35:56.906Z,5.83
2019-02-06T11:38:28.076Z,5.50
2019-02-06T11:40:58.057Z,5.80
2019-02-06T11:43:27.534Z,5.43
2019-02-06T11:45:57.054Z,5.80
2019-02-06T11:48:26.553Z,5.53
2019-02-06T11:50:56.883Z,5.73
2019-02-06T11:53:27.205Z,5.90
2019-02-06T11:55:57.588Z,5.37
2019-02-06T11:58:27.592Z,5.50
2019-02-06T12:01:22.149Z,5.23
2019-02-06T12:03:52.258Z,5.20
2019-02-06T12:06:21.866Z,5.47
2019-02-06T12:08:51.350Z,5.53
2019-02-06T12:11:20.860Z,5.53
2019-02-06T12:13:49.736Z,5.60
2019-02-06T12:16:19.231Z,6.03
2019-02-06T12:18:48.830Z,6.07
2019-02-06T12:21:18.325Z,5.37
2019-02-06T12:23:47.803Z,5.17
2019-02-06T12:26:17.302Z,5.77
2019-02-06T12:28:46.868Z,5.73
2019-02-06T12:31:23.729Z,5.97
2019-02-06T12:33:53.403Z,5.43
2019-02-06T12:36:22.914Z,5.70
2019-02-06T12:38:53.786Z,5.90
2019-02-06T12:41:23.745Z,5.60
2019-02-06T12:43:53.280Z,5.40
2019-02-06T12:46:22.734Z,6.03
2019-02-06T12:48:52.558Z,5.70
2019-02-06T12:51:22.429Z,5.43
2019-02-06T12:53:51.306Z,5.43
2019-02-06T12:56:20.836Z,5.20
2019-02-06T12:58:51.990Z,5.37
2019-02-06T13:01:21.479Z,5.40
2019-02-06T13:03:50.949Z,5.40
2019-02-06T13:06:21.038Z,5.27
2019-02-06T13:08:50.532Z,5.57
2019-02-06T13:11:20.036Z,5.37
2019-02-06T13:13:49.505Z,5.10
2019-02-06T13:16:19.039Z,5.60
2019-02-06T13:18:48.532Z,5.27
2019-02-06T13:21:18.375Z,5.20
2019-02-06T13:23:49.589Z,5.80
2019-02-06T13:26:18.982Z,5.43
2019-02-06T13:28:48.511Z,5.40
2019-02-06T13:31:18.035Z,5.70
2019-02-06T13:33:47.515Z,5.27
2019-02-06T13:36:17.532Z,5.63
2019-02-06T13:38:47.015Z,5.40
2019-02-06T13:41:16.540Z,5.77
2019-02-06T13:43:46.033Z,5.93
2019-02-06T13:46:15.487Z,5.20
2019-02-06T13:48:44.997Z,5.40
2019-02-06T13:51:19.054Z,5.33
2019-02-06T13:53:46.093Z,4.87
2019-02-06T13:56:15.589Z,5.77
2019-02-06T13:58:45.047Z,6.53
2019-02-06T14:01:25.094Z,5.80
2019-02-06T14:03:45.055Z,6.30
2019-02-06T14:06:14.610Z,5.77
2019-02-06T14:08:44.099Z,6.47
2019-02-06T14:11:13.565Z,6.20
2019-02-06T14:13:43.020Z,6.10
2019-02-06T14:16:12.628Z,6.20
2019-02-06T14:18:42.138Z,6.37
2019-02-06T14:21:11.025Z,6.57
2019-02-06T14:24:05.951Z,5.93
2019-02-06T14:26:45.862Z,5.57
2019-02-06T14:29:45.926Z,6.17
2019-02-06T14:33:02.825Z,5.83
2019-02-06T14:35:49.199Z,6.23
2019-02-06T14:38:57.699Z,6.10
2019-02-06T14:42:02.287Z,5.80
2019-02-06T14:44:48.103Z,5.97
2019-02-06T14:47:51.302Z,6.17
2019-02-06T14:50:52.908Z,5.97
2019-02-06T14:54:03.086Z,5.40
2019-02-06T14:57:18.697Z,5.77
2019-02-06T15:00:29.426Z,5.77
2019-02-06T15:03:24.225Z,5.77
2019-02-06T15:06:37.639Z,5.80
2019-02-06T15:09:59.006Z,5.60
2019-02-06T15:12:55.969Z,5.67
2019-02-06T15:15:45.110Z,5.77
2019-02-06T15:18:51.273Z,5.47
2019-02-06T15:22:03.444Z,5.33
2019-02-06T15:25:07.413Z,5.77
2019-02-06T15:28:18.554Z,5.73
2019-02-06T15:31:20.651Z,6.27
2019-02-06T15:34:41.858Z,6.20
2019-02-06T15:37:52.895Z,6.50
2019-02-06T15:40:53.078Z,6.30
2019-02-06T15:43:56.978Z,6.37
2019-02-06T15:47:00.342Z,6.03
2019-02-06T15:49:56.613Z,6.33
2019-02-06T15:52:57.426Z,6.40
2019-02-06T15:55:45.317Z,6.23
2019-02-06T15:58:48.856Z,5.87
2019-02-06T16:02:11.375Z,6.27
2019-02-06T16:05:32.458Z,6.43
2019-02-06T16:08:46.344Z,6.40
2019-02-06T16:11:49.059Z,5.80
2019-02-06T16:14:54.694Z,6.17
2019-02-06T16:17:48.392Z,5.80
2019-02-06T16:20:50.246Z,5.63
2019-02-06T16:23:43.522Z,5.93
2019-02-06T16:26:56.719Z,6.30
2019-02-06T16:30:09.914Z,6.73
2019-02-06T16:33:25.367Z,5.93
2019-02-06T16:36:29.350Z,5.93
2019-02-06T16:39:24.003Z,5.80
2019-02-06T16:42:25.658Z,5.90
2019-02-06T16:45:21.747Z,6.63
2019-02-06T16:48:31.127Z,6.17
2019-02-06T16:51:19.799Z,6.20
2019-02-06T16:54:39.158Z,5.93
2019-02-06T16:57:49.679Z,5.83
2019-02-06T17:00:48.607Z,6.30
2019-02-06T17:03:33.818Z,6.23
2019-02-06T17:06:09.945Z,5.87
2019-02-06T17:09:15.342Z,6.87
2019-02-06T17:12:04.750Z,6.10
2019-02-06T17:15:09.282Z,6.27
2019-02-06T17:18:23.465Z,6.40
2019-02-06T17:21:24.833Z,6.77
2019-02-06T17:24:32.795Z,6.20
2019-02-06T17:27:33.528Z,6.30
2019-02-06T17:30:39.782Z,6.00
2019-02-06T17:33:47.111Z,5.47
2019-02-06T17:37:00.965Z,5.43
2019-02-06T17:40:13.189Z,6.07
2019-02-06T17:43:03.465Z,5.30
2019-02-06T17:46:05.678Z,5.67
2019-02-06T17:49:22.442Z,5.00
2019-02-06T17:52:21.240Z,4.63
2019-02-06T17:55:19.109Z,5.30
2019-02-06T17:57:50.174Z,5.10
2019-02-06T18:01:05.898Z,5.07
2019-02-06T18:03:57.634Z,5.40
2019-02-06T18:06:27.143Z,4.97
2019-02-06T18:08:57.214Z,5.10
2019-02-06T18:11:27.054Z,5.20
2019-02-06T18:13:56.536Z,4.77
2019-02-06T18:16:26.031Z,4.93
2019-02-06T18:18:55.539Z,4.60
2019-02-06T18:21:25.010Z,4.73
2019-02-06T18:23:54.598Z,4.73
2019-02-06T18:26:24.210Z,5.33
2019-02-06T18:28:54.125Z,4.60
2019-02-06T18:31:23.602Z,4.60
2019-02-06T18:33:53.107Z,4.97
2019-02-06T18:36:22.625Z,5.00
2019-02-06T18:38:53.755Z,4.70
2019-02-06T18:41:23.284Z,4.90
2019-02-06T18:43:52.786Z,4.87
2019-02-06T18:46:22.312Z,5.37
2019-02-06T18:48:51.916Z,4.80
2019-02-06T18:51:21.360Z,5.37
2019-02-06T18:53:50.826Z,5.03
2019-02-06T18:56:20.350Z,4.83
2019-02-06T18:58:49.931Z,4.97
2019-02-06T19:01:19.394Z,4.93
2019-02-06T19:03:49.519Z,5.00
2019-02-06T19:06:19.180Z,4.27
2019-02-06T19:08:48.993Z,4.60
2019-02-06T19:11:18.481Z,4.70
2019-02-06T19:13:48.098Z,5.13
2019-02-06T19:16:17.719Z,4.50
2019-02-06T19:18:47.213Z,4.63
2019-02-06T19:21:18.011Z,4.90
2019-02-06T19:23:47.528Z,4.77
2019-02-06T19:26:17.012Z,4.87
2019-02-06T19:28:46.525Z,7.80
2019-02-06T19:31:16.043Z,7.17
2019-02-06T19:33:46.449Z,5.07
2019-02-06T19:36:16.002Z,4.70
2019-02-06T19:38:46.193Z,5.47
2019-02-06T19:41:16.078Z,5.63
2019-02-06T19:43:45.585Z,5.10
2019-02-06T19:46:15.096Z,5.50
2019-02-06T19:48:44.564Z,6.10
2019-02-06T19:51:14.076Z,6.13
2019-02-06T19:53:43.657Z,6.20
2019-02-06T19:56:13.196Z,5.47
2019-02-06T19:58:42.678Z,5.60
2019-02-06T20:01:12.203Z,5.70
2019-02-06T20:03:41.705Z,5.40
2019-02-06T20:06:28.513Z,6.00
2019-02-06T20:09:00.534Z,5.63
2019-02-06T20:11:30.003Z,4.97
2019-02-06T20:13:59.505Z,5.70
2019-02-06T20:16:28.983Z,5.43
2019-02-06T20:18:58.472Z,5.60
2019-02-06T20:21:27.987Z,5.77
2019-02-06T20:23:57.553Z,5.87
2019-02-06T20:26:27.070Z,5.50
2019-02-06T20:28:56.577Z,5.53
2019-02-06T20:31:26.113Z,5.80
2019-02-06T20:33:55.558Z,5.10
2019-02-06T20:36:25.038Z,4.90
2019-02-06T20:38:54.593Z,4.70
2019-02-06T20:41:24.455Z,5.03
2019-02-06T20:43:53.948Z,5.57
2019-02-06T20:46:23.428Z,5.67
2019-02-06T20:48:52.939Z,5.30
2019-02-06T20:51:22.411Z,5.87
2019-02-06T20:53:51.899Z,5.30
2019-02-06T20:56:21.436Z,6.00
2019-02-06T20:58:51.219Z,6.07
2019-02-06T21:01:20.737Z,5.80
2019-02-06T21:03:50.206Z,6.80
2019-02-06T21:06:19.751Z,7.17
2019-02-06T21:08:49.239Z,6.50
2019-02-06T21:11:18.751Z,7.27
2019-02-06T21:13:48.730Z,6.80
2019-02-06T21:16:18.223Z,6.87
2019-02-06T21:18:47.735Z,6.37
2019-02-06T21:21:17.236Z,6.67
2019-02-06T21:23:46.693Z,6.57
2019-02-06T21:26:16.172Z,7.20
2019-02-06T21:28:46.090Z,7.07
2019-02-06T21:31:15.563Z,6.47
2019-02-06T21:33:45.008Z,6.77
2019-02-06T21:36:14.511Z,6.90
2019-02-06T21:38:44.288Z,7.17
2019-02-06T21:41:13.734Z,7.30
2019-02-06T21:43:44.455Z,6.40
2019-02-06T21:46:14.234Z,6.53
2019-02-06T21:48:43.771Z,6.47
2019-02-06T21:51:13.246Z,6.77
2019-02-06T21:53:42.730Z,7.63
2019-02-06T21:56:12.180Z,7.17
2019-02-06T21:58:41.905Z,7.40
2019-02-06T22:01:11.380Z,7.63
2019-02-06T22:03:40.882Z,6.90
2019-02-06T22:06:10.382Z,6.67
2019-02-06T22:08:39.861Z,6.50
2019-02-06T22:11:09.305Z,7.30
2019-02-06T22:13:38.817Z,6.60
2019-02-06T22:16:08.335Z,6.57
2019-02-06T22:18:37.830Z,6.63
2019-02-06T22:21:07.313Z,6.43
2019-02-06T22:23:36.802Z,6.57
2019-02-06T22:26:06.289Z,6.67
2019-02-06T22:28:35.807Z,6.43
2019-02-06T22:31:05.346Z,6.80
2019-02-06T22:33:34.811Z,6.63
2019-02-06T22:36:03.778Z,6.87
2019-02-06T22:38:33.286Z,6.87
2019-02-06T22:41:02.805Z,7.37
2019-02-06T22:43:32.290Z,7.00
2019-02-06T22:46:01.805Z,7.37
2019-02-06T22:48:31.297Z,7.30
2019-02-06T22:51:00.841Z,7.10
2019-02-06T22:53:30.347Z,7.40
2019-02-06T22:55:59.832Z,7.13
2019-02-06T22:58:31.352Z,6.90
2019-02-06T23:01:17.355Z,7.53
2019-02-06T23:03:48.105Z,7.57
2019-02-06T23:06:17.623Z,7.50
2019-02-06T23:08:47.266Z,7.70
2019-02-06T23:11:16.734Z,7.07
2019-02-06T23:13:46.206Z,9.57
2019-02-06T23:16:15.694Z,11.07
2019-02-06T23:18:45.154Z,10.10
2019-02-06T23:21:14.681Z,8.93
2019-02-06T23:23:44.201Z,9.10
2019-02-06T23:26:13.671Z,8.70
2019-02-06T23:28:43.150Z,7.83
2019-02-06T23:31:12.642Z,8.97
2019-02-06T23:33:42.152Z,9.87
2019-02-06T23:36:12.173Z,10.90
2019-02-06T23:38:41.644Z,10.77
2019-02-06T23:41:11.218Z,10.77
2019-02-06T23:43:40.715Z,11.23
2019-02-06T23:46:10.215Z,12.30
2019-02-06T23:48:39.698Z,11.73
2019-02-06T23:51:09.537Z,11.60
2019-02-06T23:53:39.066Z,11.87
2019-02-06T23:56:08.626Z,12.00
2019-02-06T23:58:38.091Z,12.53
